Time;durP1;ratioP1;P1;durP2;ratioP2;P2;SDS_P1;SDS_P2;PMS_P1;PMS_P2;Temp;Humidity;BMP_temperature;BMP_pressure;BME280_temperature;BME280_humidity;BME280_pressure;Samples;Min_cycle;Max_cycle;Signal;HPM_P1;HPM_P2
2022/02/18 00:00:44;;;;;;;15.43;11.80;;;7.60;99.90;;;;;;5080421;28;20183;-68
2022/02/18 00:03:11;;;;;;;16.50;12.30;;;7.60;99.90;;;;;;5084865;28;20190;-68
2022/02/18 00:05:38;;;;;;;15.60;11.57;;;7.60;99.90;;;;;;5064918;28;20186;-68
2022/02/18 00:08:07;;;;;;;15.97;11.63;;;7.60;99.90;;;;;;5083173;28;20189;-68
2022/02/18 00:10:34;;;;;;;14.13;11.87;;;7.60;99.90;;;;;;5074901;28;20182;-68
2022/02/18 00:13:00;;;;;;;17.63;11.40;;;7.50;99.90;;;;;;5067388;28;20652;-68
2022/02/18 00:15:27;;;;;;;15.07;11.33;;;7.50;99.90;;;;;;5067714;28;20205;-68
2022/02/18 00:17:54;;;;;;;15.43;11.73;;;7.50;99.90;;;;;;5083853;28;20228;-68
2022/02/18 00:20:21;;;;;;;15.03;11.57;;;7.40;99.90;;;;;;5064116;28;20182;-68
2022/02/18 00:22:47;;;;;;;16.93;12.27;;;7.50;99.90;;;;;;5072520;28;20846;-67
2022/02/18 00:25:13;;;;;;;16.67;11.83;;;7.40;99.90;;;;;;5083321;28;20194;-68
2022/02/18 00:27:41;;;;;;;17.00;11.87;;;7.40;99.90;;;;;;5081159;28;20567;-68
2022/02/18 00:30:09;;;;;;;16.53;12.03;;;7.40;99.90;;;;;;5077082;28;20217;-68
2022/02/18 00:32:36;;;;;;;14.77;11.30;;;7.30;99.90;;;;;;5075705;28;20370;-68
2022/02/18 00:35:04;;;;;;;14.30;10.37;;;7.30;99.90;;;;;;5101802;27;20185;-68
2022/02/18 00:37:30;;;;;;;17.67;11.37;;;7.30;99.90;;;;;;5086355;28;20197;-68
2022/02/18 00:39:57;;;;;;;14.67;10.13;;;7.30;99.90;;;;;;5096180;28;20183;-68
2022/02/18 00:42:27;;;;;;;15.30;9.20;;;7.30;99.90;;;;;;5077476;28;20206;-68
2022/02/18 00:44:53;;;;;;;14.97;9.97;;;7.30;99.90;;;;;;5079031;28;20191;-68
2022/02/18 00:47:19;;;;;;;13.57;9.47;;;7.30;99.90;;;;;;5067563;28;20233;-68
2022/02/18 00:49:46;;;;;;;14.17;9.27;;;7.20;99.90;;;;;;5101507;28;20186;-67
2022/02/18 00:52:13;;;;;;;11.90;8.70;;;7.20;99.90;;;;;;5064772;28;20183;-68
2022/02/18 00:54:39;;;;;;;10.63;8.50;;;7.10;99.90;;;;;;5065314;28;20205;-68
2022/02/18 00:57:05;;;;;;;11.73;8.70;;;7.10;99.90;;;;;;5080011;28;20715;-68
2022/02/18 00:59:31;;;;;;;13.40;8.43;;;7.00;99.90;;;;;;5079798;28;20273;-68
2022/02/18 01:01:58;;;;;;;12.07;8.80;;;6.90;99.90;;;;;;5070354;28;20214;-68
2022/02/18 01:04:24;;;;;;;12.80;9.07;;;6.90;99.90;;;;;;5082696;28;20186;-68
2022/02/18 01:06:50;;;;;;;14.50;9.27;;;6.80;99.90;;;;;;5083115;28;20223;-68
2022/02/18 01:09:16;;;;;;;12.70;9.07;;;6.80;99.90;;;;;;5076105;28;20667;-68
2022/02/18 01:11:43;;;;;;;14.10;9.03;;;6.80;99.90;;;;;;5097495;28;20304;-68
2022/02/18 01:14:09;;;;;;;10.73;8.17;;;6.80;99.90;;;;;;5093376;28;20183;-68
2022/02/18 01:16:39;;;;;;;11.17;8.70;;;6.80;99.90;;;;;;5061246;28;20197;-68
2022/02/18 01:19:05;;;;;;;14.30;9.83;;;6.80;99.90;;;;;;5091378;28;20597;-68
2022/02/18 01:21:31;;;;;;;12.90;9.23;;;6.80;99.90;;;;;;5074479;28;20273;-68
2022/02/18 01:23:57;;;;;;;12.13;9.30;;;6.70;99.90;;;;;;5059181;28;20453;-68
2022/02/18 01:26:24;;;;;;;11.87;9.30;;;6.80;99.90;;;;;;5074475;28;20213;-68
2022/02/18 01:28:50;;;;;;;12.50;8.90;;;6.80;99.90;;;;;;5068188;28;20187;-68
2022/02/18 01:31:16;;;;;;;14.47;10.57;;;6.70;99.90;;;;;;5078141;28;20186;-68
2022/02/18 01:33:42;;;;;;;14.30;9.57;;;6.70;99.90;;;;;;5083410;28;20232;-68
2022/02/18 01:36:09;;;;;;;13.37;9.37;;;6.70;99.90;;;;;;5071218;28;20239;-68
2022/02/18 01:38:35;;;;;;;13.20;9.57;;;6.70;99.90;;;;;;5084932;28;20186;-68
2022/02/18 01:41:01;;;;;;;16.00;10.03;;;6.70;99.90;;;;;;5080852;28;20286;-68
2022/02/18 01:43:28;;;;;;;14.03;9.83;;;6.70;99.90;;;;;;5070462;28;20213;-68
2022/02/18 01:45:54;;;;;;;14.97;9.63;;;6.60;99.90;;;;;;5079903;28;20217;-68
2022/02/18 01:48:20;;;;;;;15.13;10.57;;;6.60;99.90;;;;;;5083149;28;20564;-68
2022/02/18 01:50:47;;;;;;;14.37;9.70;;;6.60;99.90;;;;;;5072384;28;20190;-68
2022/02/18 01:53:13;;;;;;;13.47;10.50;;;6.60;99.90;;;;;;5076450;28;20717;-68
2022/02/18 01:55:39;;;;;;;13.70;10.33;;;6.60;99.90;;;;;;5087562;28;20247;-68
2022/02/18 01:58:07;;;;;;;15.33;10.50;;;6.60;99.90;;;;;;5065185;28;20655;-68
2022/02/18 02:00:34;;;;;;;16.07;10.20;;;6.70;99.90;;;;;;5049563;28;20269;-68
2022/02/18 02:03:03;;;;;;;15.03;10.33;;;6.70;99.90;;;;;;5064638;28;20595;-68
2022/02/18 02:05:30;;;;;;;13.80;9.70;;;6.80;99.90;;;;;;5076722;28;20183;-68
2022/02/18 02:07:59;;;;;;;15.17;9.70;;;6.70;99.90;;;;;;5078114;28;20215;-68
2022/02/18 02:10:26;;;;;;;12.87;9.40;;;6.70;99.90;;;;;;5074886;28;20186;-68
2022/02/18 02:12:54;;;;;;;13.70;9.80;;;6.70;99.90;;;;;;5064552;28;20187;-68
2022/02/18 02:15:27;;;;;;;17.40;10.10;;;6.70;99.90;;;;;;5075217;28;20624;-68
2022/02/18 02:17:58;;;;;;;14.77;10.33;;;6.70;99.90;;;;;;5081685;28;20267;-68
2022/02/18 02:20:25;;;;;;;13.83;10.23;;;6.70;99.90;;;;;;5087794;28;20267;-68
2022/02/18 02:22:51;;;;;;;14.70;9.87;;;6.70;99.90;;;;;;5076599;28;20247;-68
2022/02/18 02:25:17;;;;;;;13.73;9.77;;;6.70;99.90;;;;;;5087614;28;20186;-68
2022/02/18 02:27:44;;;;;;;14.03;9.53;;;6.80;99.90;;;;;;5085781;28;20206;-68
2022/02/18 02:30:15;;;;;;;14.67;9.57;;;6.80;99.90;;;;;;5070060;28;20261;-68
2022/02/18 02:32:42;;;;;;;14.17;9.47;;;6.80;99.90;;;;;;5077926;28;20218;-68
2022/02/18 02:35:08;;;;;;;12.33;9.40;;;6.70;99.90;;;;;;5083409;28;20262;-68
2022/02/18 02:37:35;;;;;;;14.73;8.70;;;6.60;99.90;;;;;;5074131;28;20190;-68
2022/02/18 02:40:01;;;;;;;11.73;9.00;;;6.60;99.90;;;;;;5098023;28;20223;-68
2022/02/18 02:42:27;;;;;;;14.07;9.03;;;6.60;99.90;;;;;;5073311;28;20197;-68
2022/02/18 02:44:54;;;;;;;14.83;9.70;;;6.60;99.90;;;;;;5078689;28;20202;-68
2022/02/18 02:47:20;;;;;;;12.33;8.53;;;6.60;99.90;;;;;;5087768;28;20202;-68
2022/02/18 02:49:46;;;;;;;10.87;8.03;;;6.60;99.90;;;;;;5086832;28;20204;-68
2022/02/18 02:52:12;;;;;;;11.37;8.63;;;6.50;99.90;;;;;;5094921;27;20185;-68
2022/02/18 02:54:39;;;;;;;11.27;8.80;;;6.50;99.90;;;;;;5089468;28;20208;-68
2022/02/18 02:57:06;;;;;;;13.30;8.43;;;6.50;99.90;;;;;;5087589;28;20194;-68
2022/02/18 02:59:32;;;;;;;10.67;8.50;;;6.40;99.90;;;;;;5083362;28;20576;-68
2022/02/18 03:01:59;;;;;;;12.93;9.17;;;6.40;99.90;;;;;;5077399;28;20194;-68
2022/02/18 03:04:25;;;;;;;14.27;9.63;;;6.40;99.90;;;;;;5072398;28;20644;-68
2022/02/18 03:06:51;;;;;;;13.70;9.67;;;6.40;99.90;;;;;;5076378;28;20217;-68
2022/02/18 03:09:17;;;;;;;15.60;9.70;;;6.40;99.90;;;;;;5091327;28;20189;-68
2022/02/18 03:11:43;;;;;;;14.93;10.20;;;6.50;99.90;;;;;;5095529;28;20186;-68
2022/02/18 03:14:10;;;;;;;15.07;10.27;;;6.40;99.90;;;;;;5073953;28;20573;-68
2022/02/18 03:16:36;;;;;;;13.57;9.90;;;6.40;99.90;;;;;;5071626;28;20198;-68
2022/02/18 03:19:03;;;;;;;13.97;10.50;;;6.40;99.90;;;;;;5082669;28;20186;-68
2022/02/18 03:21:29;;;;;;;16.17;10.37;;;6.40;99.90;;;;;;5082450;28;20194;-68
2022/02/18 03:23:55;;;;;;;14.70;10.07;;;6.50;99.90;;;;;;5096279;28;20182;-68
2022/02/18 03:26:21;;;;;;;12.53;9.60;;;6.50;99.90;;;;;;5068014;28;20701;-68
2022/02/18 03:28:48;;;;;;;13.23;9.90;;;6.40;99.90;;;;;;5071130;28;20236;-68
2022/02/18 03:31:14;;;;;;;14.57;10.50;;;6.40;99.90;;;;;;5085223;28;20280;-68
2022/02/18 03:33:42;;;;;;;16.23;10.97;;;6.40;99.90;;;;;;5075432;28;20233;-68
2022/02/18 03:36:09;;;;;;;15.83;11.37;;;6.40;99.90;;;;;;5082952;28;20209;-68
2022/02/18 03:38:36;;;;;;;12.57;10.17;;;6.50;99.90;;;;;;5081775;28;20550;-68
2022/02/18 03:41:03;;;;;;;15.93;10.93;;;6.50;99.90;;;;;;5072488;28;20190;-68
2022/02/18 03:43:29;;;;;;;13.33;10.17;;;6.40;99.90;;;;;;5076778;28;20665;-68
2022/02/18 03:45:56;;;;;;;17.70;11.40;;;6.40;99.90;;;;;;5099242;28;20209;-68
2022/02/18 03:48:22;;;;;;;15.60;11.20;;;6.40;99.90;;;;;;5089572;28;20182;-68
2022/02/18 03:50:50;;;;;;;13.60;10.30;;;6.50;99.90;;;;;;5057211;28;20811;-67
2022/02/18 03:53:16;;;;;;;15.00;11.30;;;6.50;99.90;;;;;;5066425;28;20198;-68
2022/02/18 03:55:42;;;;;;;16.03;11.37;;;6.50;99.90;;;;;;5054009;28;20191;-68
2022/02/18 03:58:09;;;;;;;21.17;12.07;;;6.50;99.90;;;;;;5068997;28;20619;-68
2022/02/18 04:00:36;;;;;;;19.07;12.23;;;6.50;99.90;;;;;;5065901;28;20195;-67
2022/02/18 04:03:02;;;;;;;16.03;10.93;;;6.60;99.90;;;;;;5077709;28;20194;-68
2022/02/18 04:05:29;;;;;;;14.37;11.33;;;6.60;99.90;;;;;;5083304;28;20200;-68
2022/02/18 04:07:55;;;;;;;16.07;12.40;;;6.60;99.90;;;;;;5092658;28;20288;-68
2022/02/18 04:10:21;;;;;;;16.57;11.83;;;6.70;99.90;;;;;;5076876;28;20218;-68
2022/02/18 04:12:47;;;;;;;16.90;10.83;;;6.70;99.90;;;;;;5072038;28;20193;-68
2022/02/18 04:15:14;;;;;;;16.77;11.70;;;6.70;99.90;;;;;;5073237;28;20201;-68
2022/02/18 04:17:40;;;;;;;18.83;11.87;;;6.70;99.90;;;;;;5072415;28;20190;-68
2022/02/18 04:20:07;;;;;;;18.60;11.17;;;6.70;99.90;;;;;;5068956;28;20266;-68
2022/02/18 04:22:33;;;;;;;14.47;10.90;;;6.60;99.90;;;;;;5085190;28;20243;-68
2022/02/18 04:24:59;;;;;;;15.00;10.33;;;6.60;99.90;;;;;;5072660;28;20766;-68
2022/02/18 04:27:26;;;;;;;15.23;11.00;;;6.60;99.90;;;;;;5083782;28;20700;-68
2022/02/18 04:29:52;;;;;;;16.83;11.30;;;6.60;99.90;;;;;;5079401;28;20209;-68
2022/02/18 04:32:18;;;;;;;15.43;11.10;;;6.70;99.90;;;;;;5079234;28;20218;-68
2022/02/18 04:34:45;;;;;;;12.17;10.40;;;6.70;99.90;;;;;;5068664;28;20662;-68
2022/02/18 04:37:11;;;;;;;14.27;10.67;;;6.80;99.90;;;;;;5084313;28;20204;-68
2022/02/18 04:39:37;;;;;;;17.30;11.60;;;6.70;99.90;;;;;;5066366;28;20532;-68
2022/02/18 04:42:04;;;;;;;16.47;11.10;;;6.80;99.90;;;;;;5060208;28;20202;-69
2022/02/18 04:44:30;;;;;;;17.17;11.43;;;6.80;99.90;;;;;;5084022;28;20195;-68
2022/02/18 04:46:57;;;;;;;17.30;11.60;;;6.80;99.90;;;;;;5080245;28;20217;-68
2022/02/18 04:49:23;;;;;;;17.93;10.87;;;6.90;99.90;;;;;;5075882;28;20635;-68
2022/02/18 04:51:49;;;;;;;15.73;11.33;;;6.90;99.90;;;;;;5068402;28;20187;-67
2022/02/18 04:54:16;;;;;;;14.90;11.27;;;6.90;99.90;;;;;;5066398;28;20483;-68
2022/02/18 04:56:42;;;;;;;14.53;10.97;;;7.00;99.90;;;;;;5072742;28;20392;-68
2022/02/18 04:59:08;;;;;;;16.63;11.40;;;6.90;99.90;;;;;;5069676;28;20203;-68
2022/02/18 05:01:34;;;;;;;20.93;11.43;;;6.90;99.90;;;;;;5073853;28;20646;-69
2022/02/18 05:04:00;;;;;;;17.90;11.60;;;6.90;99.90;;;;;;5075996;28;20376;-68
2022/02/18 05:06:27;;;;;;;15.43;10.67;;;7.00;99.90;;;;;;5075638;28;20219;-68
2022/02/18 05:08:54;;;;;;;17.07;11.03;;;7.00;99.90;;;;;;5068889;28;20722;-68
2022/02/18 05:11:20;;;;;;;15.80;10.50;;;7.00;99.90;;;;;;5078033;28;20182;-69
2022/02/18 05:13:46;;;;;;;15.37;11.57;;;7.00;99.90;;;;;;5072147;28;20673;-68
2022/02/18 05:16:12;;;;;;;14.47;11.07;;;7.10;99.90;;;;;;5075646;28;20197;-68
2022/02/18 05:18:39;;;;;;;14.30;11.50;;;7.10;99.90;;;;;;5068624;28;20787;-68
2022/02/18 05:21:06;;;;;;;16.13;10.40;;;7.20;99.90;;;;;;5047461;28;20194;-68
2022/02/18 05:23:33;;;;;;;15.43;11.87;;;7.20;99.90;;;;;;5069369;28;20206;-68
2022/02/18 05:25:59;;;;;;;14.37;10.87;;;7.20;99.90;;;;;;5067671;28;20226;-68
2022/02/18 05:28:25;;;;;;;18.47;11.53;;;7.30;99.90;;;;;;5078061;28;20553;-68
2022/02/18 05:30:52;;;;;;;17.87;12.50;;;7.30;99.90;;;;;;5080652;28;20185;-68
2022/02/18 05:33:18;;;;;;;19.30;12.63;;;7.30;99.90;;;;;;5092595;28;20214;-68
2022/02/18 05:35:44;;;;;;;16.60;12.63;;;7.40;99.90;;;;;;5069926;28;20356;-68
2022/02/18 05:38:10;;;;;;;19.53;13.17;;;7.40;99.90;;;;;;5067853;28;20197;-68
2022/02/18 05:40:36;;;;;;;20.67;13.83;;;7.50;99.90;;;;;;5083559;28;20585;-68
2022/02/18 05:43:04;;;;;;;21.80;13.97;;;7.50;99.90;;;;;;5065305;28;20689;-68
2022/02/18 05:45:30;;;;;;;25.63;15.60;;;7.50;99.90;;;;;;5070672;28;20198;-68
2022/02/18 05:47:56;;;;;;;37.20;22.67;;;7.60;99.90;;;;;;5077300;28;20233;-68
2022/02/18 05:50:22;;;;;;;56.10;30.57;;;7.70;99.90;;;;;;5065586;28;20191;-68
2022/02/18 05:52:49;;;;;;;48.07;29.70;;;7.70;99.90;;;;;;5069817;28;20197;-68
2022/02/18 05:55:15;;;;;;;44.40;27.03;;;7.70;99.90;;;;;;5073908;28;20247;-68
2022/02/18 05:57:41;;;;;;;38.27;24.17;;;7.80;99.90;;;;;;5077669;28;20190;-68
2022/02/18 06:00:08;;;;;;;33.93;21.43;;;7.80;99.90;;;;;;5080324;28;20206;-68
2022/02/18 06:02:35;;;;;;;28.33;19.30;;;7.90;99.90;;;;;;5080205;28;20198;-68
2022/02/18 06:05:05;;;;;;;32.13;20.13;;;7.90;99.90;;;;;;5084512;28;20209;-68
2022/02/18 06:07:31;;;;;;;26.27;17.27;;;8.00;99.90;;;;;;5082366;28;20770;-68
2022/02/18 06:09:57;;;;;;;25.73;17.97;;;8.10;99.90;;;;;;5083341;28;20231;-67
2022/02/18 06:12:23;;;;;;;29.03;16.97;;;8.10;99.90;;;;;;5075418;28;20197;-68
2022/02/18 06:14:50;;;;;;;24.03;17.10;;;8.10;99.90;;;;;;5094795;28;20182;-68
2022/02/18 06:17:23;;;;;;;21.33;16.20;;;8.20;99.90;;;;;;5092118;28;20193;-67
2022/02/18 06:19:50;;;;;;;24.13;16.10;;;8.20;99.90;;;;;;5076586;28;20662;-68
2022/02/18 06:22:16;;;;;;;21.17;15.43;;;8.20;99.90;;;;;;5046601;28;20199;-68
2022/02/18 06:24:43;;;;;;;18.63;14.73;;;8.30;99.90;;;;;;5069823;28;20974;-68
2022/02/18 06:27:09;;;;;;;20.80;14.73;;;8.30;99.90;;;;;;5067910;28;20211;-68
2022/02/18 06:29:36;;;;;;;22.40;15.20;;;8.30;99.90;;;;;;5066508;28;20249;-67
2022/02/18 06:32:03;;;;;;;29.53;15.53;;;8.40;99.90;;;;;;5069594;28;20245;-68
2022/02/18 06:34:30;;;;;;;21.83;15.47;;;8.40;99.90;;;;;;5078485;28;20705;-68
2022/02/18 06:36:56;;;;;;;27.57;14.87;;;8.50;99.90;;;;;;5080237;28;20221;-68
2022/02/18 06:39:23;;;;;;;20.93;14.37;;;8.50;99.90;;;;;;5079185;28;20269;-68
2022/02/18 06:41:49;;;;;;;22.17;14.50;;;8.50;99.90;;;;;;5055096;28;20197;-68
2022/02/18 06:44:16;;;;;;;22.33;15.07;;;8.60;99.90;;;;;;5064884;28;20319;-68
2022/02/18 06:46:43;;;;;;;21.67;14.53;;;8.70;99.90;;;;;;5065115;28;20210;-67
2022/02/18 06:49:09;;;;;;;22.57;14.23;;;8.70;99.90;;;;;;5056801;28;20277;-67
2022/02/18 06:51:36;;;;;;;22.43;14.20;;;8.80;99.90;;;;;;5079216;28;20186;-68
2022/02/18 06:54:02;;;;;;;28.93;14.30;;;8.80;99.90;;;;;;5070525;28;20195;-68
2022/02/18 06:56:29;;;;;;;24.63;14.63;;;8.90;99.90;;;;;;5062783;28;20675;-67
2022/02/18 06:58:55;;;;;;;19.60;13.90;;;8.90;99.90;;;;;;5081338;28;20190;-68
2022/02/18 07:01:21;;;;;;;22.67;14.77;;;8.90;99.90;;;;;;5066546;28;20522;-66
2022/02/18 07:03:47;;;;;;;20.67;13.77;;;9.00;99.90;;;;;;5082380;28;20201;-66
2022/02/18 07:06:14;;;;;;;22.57;13.60;;;9.10;99.90;;;;;;5073010;28;20274;-66
2022/02/18 07:08:40;;;;;;;17.43;13.83;;;9.20;99.90;;;;;;5091556;28;20195;-67
2022/02/18 07:11:06;;;;;;;16.47;12.87;;;9.30;99.90;;;;;;5059206;28;20193;-67
2022/02/18 07:13:32;;;;;;;18.80;13.70;;;9.40;99.90;;;;;;5072406;28;20182;-67
2022/02/18 07:15:59;;;;;;;24.20;13.63;;;9.40;99.90;;;;;;5065954;28;20195;-67
2022/02/18 07:18:26;;;;;;;19.43;13.20;;;9.40;99.90;;;;;;5074292;28;20206;-68
2022/02/18 07:20:53;;;;;;;19.47;13.87;;;9.50;99.90;;;;;;5084845;28;20195;-68
2022/02/18 07:23:19;;;;;;;16.40;13.13;;;9.50;99.90;;;;;;5090760;28;20197;-68
2022/02/18 07:25:46;;;;;;;20.83;14.33;;;9.60;99.90;;;;;;5078656;28;20205;-68
2022/02/18 07:28:12;;;;;;;16.63;12.80;;;9.60;99.90;;;;;;5081386;28;20222;-68
2022/02/18 07:30:40;;;;;;;18.27;12.80;;;9.60;99.90;;;;;;5069804;28;20214;-68
2022/02/18 07:33:07;;;;;;;17.70;12.57;;;9.70;99.90;;;;;;5079874;28;20289;-68
2022/02/18 07:35:33;;;;;;;21.77;14.17;;;9.80;99.90;;;;;;5068570;28;20190;-68
2022/02/18 07:38:01;;;;;;;18.33;13.37;;;9.80;99.90;;;;;;5073754;28;20198;-68
2022/02/18 07:40:28;;;;;;;17.23;13.10;;;9.90;99.90;;;;;;5085408;28;20705;-69
2022/02/18 07:42:55;;;;;;;20.93;13.50;;;9.90;99.90;;;;;;5082705;28;20670;-68
2022/02/18 07:45:22;;;;;;;18.77;14.10;;;10.00;99.90;;;;;;5078115;28;20249;-68
2022/02/18 07:47:58;;;;;;;20.17;13.67;;;10.00;99.90;;;;;;5074765;28;20218;-68
2022/02/18 07:50:25;;;;;;;21.07;13.10;;;10.10;99.90;;;;;;5068738;28;20515;-68
2022/02/18 07:52:52;;;;;;;14.40;11.63;;;10.20;99.90;;;;;;5073626;28;20190;-68
2022/02/18 07:55:19;;;;;;;21.67;12.63;;;10.20;99.90;;;;;;5074831;28;20186;-68
2022/02/18 07:57:46;;;;;;;16.20;11.97;;;10.30;99.90;;;;;;5079258;28;20242;-68
2022/02/18 08:00:14;;;;;;;18.23;12.33;;;10.30;99.90;;;;;;5061641;28;20187;-69
2022/02/18 08:02:41;;;;;;;15.73;11.80;;;10.40;99.90;;;;;;5060352;28;20191;-68
2022/02/18 08:05:08;;;;;;;17.53;12.70;;;10.50;99.90;;;;;;5076183;28;20336;-69
2022/02/18 08:07:34;;;;;;;16.90;11.77;;;10.60;99.90;;;;;;5075361;28;20301;-68
2022/02/18 08:10:00;;;;;;;16.90;12.57;;;10.80;99.90;;;;;;5057705;28;20233;-68
2022/02/18 08:12:27;;;;;;;18.40;12.33;;;11.20;99.90;;;;;;5068057;28;20274;-68
2022/02/18 08:14:53;;;;;;;19.43;12.53;;;11.40;99.90;;;;;;5073380;28;20598;-68
2022/02/18 08:17:20;;;;;;;18.73;13.20;;;11.30;99.90;;;;;;5075706;28;20197;-68
2022/02/18 08:19:46;;;;;;;15.33;11.47;;;11.30;99.90;;;;;;5071670;28;20203;-68
2022/02/18 08:22:13;;;;;;;17.77;12.63;;;11.30;99.90;;;;;;5073877;28;20191;-68
2022/02/18 08:24:40;;;;;;;17.23;11.93;;;11.40;99.90;;;;;;5071615;28;20293;-69
2022/02/18 08:27:07;;;;;;;18.37;12.57;;;11.40;99.90;;;;;;5067129;28;20214;-69
2022/02/18 08:29:34;;;;;;;19.53;12.53;;;11.40;99.90;;;;;;5088215;28;20199;-69
2022/02/18 08:32:00;;;;;;;20.37;12.10;;;11.40;99.90;;;;;;5076278;28;20217;-69
2022/02/18 08:34:28;;;;;;;21.00;13.07;;;11.40;99.90;;;;;;5048613;28;20191;-69
2022/02/18 08:36:54;;;;;;;18.67;13.07;;;11.40;99.90;;;;;;5075798;28;20681;-69
2022/02/18 08:39:21;;;;;;;20.33;13.00;;;11.50;99.90;;;;;;5071343;28;20198;-69
2022/02/18 08:41:47;;;;;;;18.87;12.93;;;11.60;99.90;;;;;;5075219;28;20663;-69
2022/02/18 08:44:17;;;;;;;16.63;11.97;;;11.60;99.90;;;;;;5067906;28;20213;-69
2022/02/18 08:46:44;;;;;;;17.60;12.53;;;11.70;99.90;;;;;;5072057;28;20549;-69
2022/02/18 08:49:11;;;;;;;19.57;12.40;;;11.80;99.90;;;;;;5056688;28;20198;-70
2022/02/18 08:51:38;;;;;;;16.93;11.47;;;11.90;99.90;;;;;;5070943;28;20194;-69
2022/02/18 08:54:05;;;;;;;19.27;12.40;;;11.90;99.90;;;;;;5068871;28;20225;-69
2022/02/18 08:56:32;;;;;;;19.90;12.47;;;11.90;99.90;;;;;;5083175;28;20285;-70
2022/02/18 08:58:59;;;;;;;17.10;12.07;;;12.00;99.90;;;;;;5071989;28;20642;-69
2022/02/18 09:01:27;;;;;;;16.07;11.40;;;12.10;99.90;;;;;;5087155;28;20189;-68
2022/02/18 09:03:54;;;;;;;17.90;13.17;;;12.20;99.90;;;;;;5098536;27;20187;-68
2022/02/18 09:06:20;;;;;;;21.07;14.53;;;12.20;99.90;;;;;;5073947;28;20666;-68
2022/02/18 09:08:48;;;;;;;17.00;12.70;;;12.20;99.90;;;;;;5070520;28;20627;-68
2022/02/18 09:11:17;;;;;;;20.67;13.20;;;12.30;99.90;;;;;;5072397;28;20689;-68
2022/02/18 09:13:43;;;;;;;17.47;12.13;;;12.30;99.90;;;;;;5076984;28;20201;-68
2022/02/18 09:16:09;;;;;;;17.70;11.60;;;12.40;99.90;;;;;;5081072;28;20255;-68
2022/02/18 09:18:36;;;;;;;16.00;12.57;;;12.40;99.90;;;;;;5079147;28;20269;-68
2022/02/18 09:21:02;;;;;;;16.23;12.70;;;12.40;99.90;;;;;;5071777;28;20195;-68
2022/02/18 09:23:29;;;;;;;21.37;13.30;;;12.50;99.90;;;;;;5069330;28;20203;-68
2022/02/18 09:25:55;;;;;;;15.87;12.13;;;12.60;99.90;;;;;;5072370;28;20269;-68
2022/02/18 09:28:23;;;;;;;15.23;11.50;;;12.60;99.90;;;;;;5053921;28;20233;-68
2022/02/18 09:30:51;;;;;;;18.47;12.17;;;12.70;99.90;;;;;;5071628;28;20183;-69
2022/02/18 09:33:18;;;;;;;15.63;11.57;;;12.70;99.90;;;;;;5077957;28;20241;-69
2022/02/18 09:35:46;;;;;;;15.10;11.27;;;12.80;99.90;;;;;;5066782;28;20298;-69
2022/02/18 09:38:13;;;;;;;18.33;11.93;;;12.80;99.90;;;;;;5072355;28;20290;-69
2022/02/18 09:40:41;;;;;;;16.03;11.93;;;12.90;99.90;;;;;;5071823;28;20340;-69
2022/02/18 09:43:08;;;;;;;15.87;11.83;;;12.90;99.90;;;;;;5074919;28;20203;-69
2022/02/18 09:45:35;;;;;;;17.07;11.93;;;12.90;99.90;;;;;;5074773;28;20201;-68
2022/02/18 09:48:03;;;;;;;17.30;12.07;;;12.90;99.90;;;;;;5076974;28;20347;-68
2022/02/18 09:50:31;;;;;;;16.47;12.43;;;12.90;99.90;;;;;;5073590;28;20198;-68
2022/02/18 09:52:58;;;;;;;14.97;11.37;;;12.90;99.90;;;;;;5073736;28;20273;-68
2022/02/18 09:55:24;;;;;;;14.30;11.13;;;13.00;99.90;;;;;;5074183;28;20200;-69
2022/02/18 09:57:55;;;;;;;14.57;10.93;;;13.10;99.90;;;;;;5074125;28;20903;-68
2022/02/18 10:00:24;;;;;;;11.77;9.60;;;13.10;99.90;;;;;;5059662;28;20186;-69
2022/02/18 10:02:52;;;;;;;15.00;10.73;;;13.20;99.90;;;;;;5063677;28;20195;-68
2022/02/18 10:05:19;;;;;;;14.23;11.33;;;13.30;99.90;;;;;;5074059;28;20420;-69
2022/02/18 10:08:05;;;;;;;17.33;10.67;;;13.50;99.90;;;;;;5080569;28;20206;-69
2022/02/18 10:10:34;;;;;;;15.17;10.30;;;13.70;99.90;;;;;;5058946;28;20690;-69
2022/02/18 10:13:01;;;;;;;18.83;10.30;;;13.80;99.90;;;;;;5069295;28;20893;-68
2022/02/18 10:15:29;;;;;;;13.10;9.90;;;13.90;99.90;;;;;;5090590;28;20194;-69
2022/02/18 10:18:03;;;;;;;14.60;9.93;;;14.00;99.90;;;;;;5085767;28;20244;-68
2022/02/18 10:20:30;;;;;;;21.33;10.30;;;14.10;99.90;;;;;;5067852;28;20273;-68
2022/02/18 10:23:01;;;;;;;13.67;10.57;;;14.20;99.90;;;;;;5076577;28;20535;-69
2022/02/18 10:25:42;;;;;;;16.50;10.37;;;14.40;99.90;;;;;;5076642;28;20190;-69
2022/02/18 10:28:13;;;;;;;12.77;9.63;;;14.50;99.90;;;;;;5061249;28;20690;-69
2022/02/18 10:30:40;;;;;;;12.97;9.77;;;14.60;99.90;;;;;;5079318;28;20563;-69
2022/02/18 10:33:25;;;;;;;10.00;8.67;;;14.80;99.90;;;;;;5077005;28;20316;-70
2022/02/18 10:36:03;;;;;;;11.30;8.57;;;15.00;99.90;;;;;;5069272;28;20221;-69
2022/02/18 10:38:38;;;;;;;14.37;9.20;;;15.20;99.90;;;;;;5075436;28;20191;-70
2022/02/18 10:41:20;;;;;;;13.47;9.37;;;15.40;99.90;;;;;;5079710;28;20193;-69
2022/02/18 10:43:47;;;;;;;18.13;9.93;;;15.70;99.90;;;;;;5057659;28;20193;-70
2022/02/18 10:46:14;;;;;;;11.37;9.63;;;16.10;99.90;;;;;;5085936;28;20190;-70
2022/02/18 10:48:49;;;;;;;13.67;9.50;;;16.40;99.90;;;;;;5084645;28;20183;-70
2022/02/18 10:51:20;;;;;;;14.10;8.33;;;16.70;99.90;;;;;;5075819;28;20637;-70
2022/02/18 10:53:50;;;;;;;10.53;8.50;;;16.90;99.90;;;;;;5061391;28;20201;-70
2022/02/18 10:56:20;;;;;;;12.27;8.37;;;16.80;99.90;;;;;;5091049;28;20265;-70
2022/02/18 10:58:52;;;;;;;20.43;8.40;;;16.80;99.90;;;;;;5089865;28;20212;-70
2022/02/18 11:01:27;;;;;;;10.80;8.20;;;16.90;99.90;;;;;;5084071;28;20186;-69
2022/02/18 11:04:04;;;;;;;12.00;8.40;;;16.80;99.90;;;;;;5059834;28;20328;-70
2022/02/18 11:06:40;;;;;;;12.80;8.73;;;16.80;99.90;;;;;;5074370;28;20213;-69
2022/02/18 11:09:10;;;;;;;11.20;8.77;;;16.60;99.90;;;;;;5076431;28;20182;-70
2022/02/18 11:11:44;;;;;;;13.53;8.53;;;16.40;99.90;;;;;;5058981;28;20182;-70
2022/02/18 11:14:16;;;;;;;10.47;8.83;;;16.30;99.90;;;;;;5077029;28;20632;-69
2022/02/18 11:16:52;;;;;;;14.00;9.17;;;16.10;99.90;;;;;;5080178;28;20198;-70
2022/02/18 11:19:21;;;;;;;11.43;9.37;;;16.00;99.90;;;;;;5081944;28;20201;-70
2022/02/18 11:21:49;;;;;;;13.60;9.13;;;15.80;99.90;;;;;;5076213;28;20355;-69
2022/02/18 11:24:18;;;;;;;13.10;9.70;;;15.80;99.90;;;;;;5068776;28;20297;-70
2022/02/18 11:26:44;;;;;;;14.03;9.57;;;15.70;99.90;;;;;;5072618;28;20222;-69
2022/02/18 11:29:14;;;;;;;11.50;9.60;;;15.70;99.90;;;;;;5068724;28;20186;-70
2022/02/18 11:31:56;;;;;;;13.33;9.57;;;15.60;99.90;;;;;;5076993;28;20186;-68
2022/02/18 11:34:25;;;;;;;19.00;10.53;;;15.50;99.90;;;;;;5090300;28;20190;-69
2022/02/18 11:37:19;;;;;;;16.37;9.80;;;15.40;99.90;;;;;;5073373;28;20191;-69
2022/02/18 11:40:06;;;;;;;13.10;10.10;;;15.40;99.90;;;;;;5065483;28;20658;-69
2022/02/18 11:42:58;;;;;;;12.87;10.30;;;15.30;99.90;;;;;;5079699;28;20273;-68
2022/02/18 11:45:26;;;;;;;15.80;10.57;;;15.40;99.90;;;;;;5071145;28;20195;-69
2022/02/18 11:47:53;;;;;;;14.27;10.30;;;15.30;99.90;;;;;;5072741;28;20222;-69
2022/02/18 11:50:32;;;;;;;12.67;9.87;;;15.30;99.90;;;;;;5065975;28;20194;-70
2022/02/18 11:53:00;;;;;;;15.50;10.30;;;15.40;99.90;;;;;;5068849;28;20195;-69
2022/02/18 11:55:36;;;;;;;12.93;10.53;;;15.40;99.90;;;;;;5070353;28;20187;-69
2022/02/18 11:58:17;;;;;;;12.93;9.70;;;15.40;99.90;;;;;;5077425;28;20204;-69
2022/02/18 12:00:49;;;;;;;14.33;9.63;;;15.30;99.90;;;;;;5079834;28;20186;-69
2022/02/18 12:03:24;;;;;;;16.23;10.70;;;15.30;99.90;;;;;;5084398;28;20258;-69
2022/02/18 12:06:22;;;;;;;12.43;10.47;;;15.20;99.90;;;;;;5071248;28;20191;-70
2022/02/18 12:08:50;;;;;;;16.30;10.23;;;15.20;99.90;;;;;;5064099;28;20206;-69
2022/02/18 12:11:19;;;;;;;16.93;11.47;;;15.10;99.90;;;;;;5074993;28;20182;-69
2022/02/18 12:14:00;;;;;;;13.07;9.70;;;15.00;99.90;;;;;;5073382;28;20186;-70
2022/02/18 12:16:27;;;;;;;16.37;11.67;;;15.00;99.90;;;;;;5071573;28;20182;-70
2022/02/18 12:19:13;;;;;;;11.77;10.30;;;15.00;99.90;;;;;;5079589;28;20182;-70
2022/02/18 12:21:59;;;;;;;14.37;10.33;;;15.00;99.90;;;;;;5057865;28;20217;-70
2022/02/18 12:24:47;;;;;;;15.23;10.97;;;15.00;99.90;;;;;;5076053;28;20201;-70
2022/02/18 12:27:23;;;;;;;14.73;10.23;;;15.00;99.90;;;;;;5072642;28;20718;-70
2022/02/18 12:29:51;;;;;;;13.60;10.50;;;15.00;99.90;;;;;;5079640;28;20181;-70
2022/02/18 12:32:18;;;;;;;14.83;10.60;;;14.90;99.90;;;;;;5069682;28;20637;-68
2022/02/18 12:34:58;;;;;;;12.97;10.10;;;14.90;99.90;;;;;;5073129;28;20191;-69
2022/02/18 12:37:24;;;;;;;14.40;10.33;;;14.90;99.90;;;;;;5054966;28;20197;-70
2022/02/18 12:39:59;;;;;;;12.23;10.27;;;14.80;99.90;;;;;;5059008;28;20532;-69